createdAt,value
2022-11-23T00:00:30.869Z,14.14
2022-11-23T00:03:00.630Z,13.81
2022-11-23T00:05:31.841Z,14.19
2022-11-23T00:08:00.168Z,14.50
2022-11-23T00:10:28.600Z,13.88
2022-11-23T00:12:57.003Z,13.80
2022-11-23T00:15:25.462Z,13.40
2022-11-23T00:17:53.896Z,13.90
2022-11-23T00:20:22.326Z,14.09
2022-11-23T00:22:52.062Z,13.88
2022-11-23T00:25:32.698Z,14.50
2022-11-23T00:28:02.252Z,14.35
2022-11-23T00:30:30.632Z,14.18
2022-11-23T00:33:01.159Z,14.26
2022-11-23T00:35:34.030Z,14.13
2022-11-23T00:38:03.709Z,13.97
2022-11-23T00:40:31.956Z,13.94
2022-11-23T00:43:00.223Z,14.03
2022-11-23T00:45:28.565Z,14.43
2022-11-23T00:47:56.858Z,14.16
2022-11-23T00:50:26.242Z,14.01
2022-11-23T00:52:54.598Z,13.95
2022-11-23T00:55:24.269Z,14.58
2022-11-23T00:57:52.574Z,14.15
2022-11-23T01:00:21.022Z,14.26
2022-11-23T01:02:49.332Z,14.68
2022-11-23T01:05:17.926Z,14.28
2022-11-23T01:07:46.260Z,13.87
2022-11-23T01:10:14.635Z,13.83
2022-11-23T01:12:45.198Z,13.60
2022-11-23T01:15:13.486Z,14.02
2022-11-23T01:17:41.757Z,13.96
2022-11-23T01:20:11.539Z,14.16
2022-11-23T01:22:39.782Z,14.38
2022-11-23T01:25:09.482Z,13.77
2022-11-23T01:27:37.815Z,13.75
2022-11-23T01:30:10.112Z,13.12
2022-11-23T01:32:38.409Z,13.05
2022-11-23T01:35:07.945Z,13.77
2022-11-23T01:37:36.284Z,14.03
2022-11-23T01:40:05.459Z,14.09
2022-11-23T01:42:57.137Z,13.56
2022-11-23T01:45:39.507Z,13.69
2022-11-23T01:48:14.581Z,13.99
2022-11-23T01:50:48.279Z,14.03
2022-11-23T01:53:17.371Z,13.75
2022-11-23T01:55:49.507Z,13.52
2022-11-23T01:58:22.429Z,13.19
2022-11-23T02:00:53.234Z,13.43
2022-11-23T02:03:21.759Z,13.03
2022-11-23T02:05:54.493Z,13.24
2022-11-23T02:08:24.852Z,12.97
2022-11-23T02:10:55.958Z,12.39
2022-11-23T02:13:27.481Z,12.46
2022-11-23T02:15:59.111Z,12.85
2022-11-23T02:18:32.199Z,13.55
2022-11-23T02:21:04.999Z,14.00
2022-11-23T02:23:44.403Z,14.33
2022-11-23T02:26:19.500Z,13.38
2022-11-23T02:28:55.222Z,13.98
2022-11-23T02:31:24.162Z,13.85
2022-11-23T02:33:53.456Z,13.71
2022-11-23T02:36:40.778Z,13.51
2022-11-23T02:39:14.089Z,13.57
2022-11-23T02:41:46.942Z,13.40
2022-11-23T02:44:33.486Z,13.11
2022-11-23T02:47:04.169Z,13.57
2022-11-23T02:49:32.691Z,12.91
2022-11-23T02:52:01.812Z,13.74
2022-11-23T02:54:30.132Z,13.46
2022-11-23T02:56:59.915Z,13.83
2022-11-23T02:59:29.283Z,13.65
2022-11-23T03:01:57.866Z,13.23
2022-11-23T03:04:28.131Z,13.06
2022-11-23T03:06:57.161Z,12.87
2022-11-23T03:09:28.752Z,11.95
2022-11-23T03:11:57.638Z,12.49
2022-11-23T03:14:27.391Z,11.97
2022-11-23T03:16:55.679Z,12.20
2022-11-23T03:19:23.979Z,12.57
2022-11-23T03:21:52.259Z,12.62
2022-11-23T03:24:20.648Z,12.95
2022-11-23T03:26:48.985Z,12.88
2022-11-23T03:29:17.308Z,12.79
2022-11-23T03:31:47.090Z,12.37
2022-11-23T03:34:15.461Z,12.59
2022-11-23T03:36:43.716Z,12.22
2022-11-23T03:39:12.130Z,12.05
2022-11-23T03:41:40.399Z,12.04
2022-11-23T03:44:08.877Z,11.66
2022-11-23T03:46:37.135Z,11.63
2022-11-23T03:49:06.925Z,11.77
2022-11-23T03:51:35.225Z,11.61
2022-11-23T03:54:03.781Z,11.59
2022-11-23T03:56:32.053Z,11.67
2022-11-23T03:59:00.347Z,11.21
2022-11-23T04:01:28.884Z,11.48
2022-11-23T04:03:57.443Z,11.24
2022-11-23T04:06:27.567Z,11.60
2022-11-23T04:09:01.558Z,10.99
2022-11-23T04:11:31.003Z,10.41
2022-11-23T04:13:59.461Z,10.18
2022-11-23T04:16:27.935Z,9.71
2022-11-23T04:18:56.458Z,10.04
2022-11-23T04:21:26.399Z,9.83
2022-11-23T04:23:54.831Z,9.89
2022-11-23T04:26:23.358Z,10.06
2022-11-23T04:28:51.818Z,10.30
2022-11-23T04:31:20.249Z,10.65
2022-11-23T04:33:48.787Z,10.59
2022-11-23T04:36:17.220Z,10.79
2022-11-23T04:38:47.009Z,10.61
2022-11-23T04:41:15.527Z,11.06
2022-11-23T04:43:43.932Z,10.83
2022-11-23T04:46:13.471Z,10.61
2022-11-23T04:48:41.972Z,9.74
2022-11-23T04:51:10.513Z,10.82
2022-11-23T04:53:38.993Z,11.03
2022-11-23T04:56:09.840Z,10.94
2022-11-23T04:58:38.602Z,9.83
2022-11-23T05:01:08.154Z,9.86
2022-11-23T05:03:37.007Z,10.17
2022-11-23T05:06:07.432Z,11.05
2022-11-23T05:08:35.927Z,10.37
2022-11-23T05:11:04.563Z,10.59
2022-11-23T05:13:34.480Z,10.51
2022-11-23T05:16:02.931Z,10.56
2022-11-23T05:18:31.269Z,11.20
2022-11-23T05:20:59.541Z,11.24
2022-11-23T05:23:27.964Z,10.67
2022-11-23T05:25:56.297Z,10.21
2022-11-23T05:28:41.352Z,9.65
2022-11-23T05:31:12.084Z,9.83
2022-11-23T05:33:41.446Z,10.06
2022-11-23T05:36:13.763Z,10.26
2022-11-23T05:38:42.699Z,10.38
2022-11-23T05:41:10.970Z,9.69
2022-11-23T05:43:39.263Z,10.38
2022-11-23T05:46:07.865Z,10.43
2022-11-23T05:48:37.506Z,10.40
2022-11-23T05:51:06.044Z,10.31
2022-11-23T05:53:34.554Z,10.05
2022-11-23T05:56:03.285Z,9.81
2022-11-23T05:58:31.825Z,8.87
2022-11-23T06:01:01.000Z,9.54
2022-11-23T06:03:29.814Z,10.16
2022-11-23T06:05:59.662Z,9.92
2022-11-23T06:08:27.973Z,9.89
2022-11-23T06:10:56.388Z,10.12
2022-11-23T06:13:24.639Z,10.24
2022-11-23T06:15:57.278Z,9.86
2022-11-23T06:18:31.257Z,9.74
2022-11-23T06:21:02.672Z,9.55
2022-11-23T06:23:31.249Z,9.49
2022-11-23T06:26:01.770Z,9.68
2022-11-23T06:28:30.193Z,9.79
2022-11-23T06:31:03.078Z,9.65
2022-11-23T06:33:33.086Z,8.68
2022-11-23T06:36:05.120Z,8.60
2022-11-23T06:38:33.636Z,8.90
2022-11-23T06:41:02.850Z,9.42
2022-11-23T06:43:31.731Z,9.19
2022-11-23T06:46:02.000Z,9.22
2022-11-23T06:48:31.343Z,9.26
2022-11-23T06:51:03.014Z,9.54
2022-11-23T06:53:32.450Z,9.24
2022-11-23T06:56:01.911Z,9.18
2022-11-23T06:58:30.298Z,9.28
2022-11-23T07:01:02.894Z,9.10
2022-11-23T07:03:31.620Z,9.16
2022-11-23T07:06:00.246Z,8.91
2022-11-23T07:08:29.946Z,8.88
2022-11-23T07:11:02.632Z,9.16
2022-11-23T07:13:32.181Z,9.23
2022-11-23T07:16:01.008Z,9.42
2022-11-23T07:18:30.319Z,9.44
2022-11-23T07:20:59.747Z,9.90
2022-11-23T07:23:29.809Z,10.22
2022-11-23T07:25:58.100Z,9.71
2022-11-23T07:28:26.401Z,9.84
2022-11-23T07:30:54.724Z,9.87
2022-11-23T07:33:23.069Z,10.34
2022-11-23T07:35:51.326Z,9.87
2022-11-23T07:38:22.093Z,9.94
2022-11-23T07:40:52.410Z,10.49
2022-11-23T07:43:20.701Z,10.93
2022-11-23T07:45:49.035Z,11.72
2022-11-23T07:48:18.165Z,12.15
2022-11-23T07:50:46.411Z,12.59
2022-11-23T07:53:14.687Z,12.70
2022-11-23T07:55:43.031Z,12.69
2022-11-23T07:58:13.416Z,12.92
2022-11-23T08:00:41.695Z,12.98
2022-11-23T08:03:30.272Z,12.59
2022-11-23T08:05:59.034Z,12.86
2022-11-23T08:08:27.424Z,12.98
2022-11-23T08:10:55.720Z,12.49
2022-11-23T08:13:25.399Z,12.69
2022-11-23T08:15:56.234Z,13.00
2022-11-23T08:18:25.670Z,13.58
2022-11-23T08:20:54.137Z,13.93
2022-11-23T08:23:25.646Z,14.13
2022-11-23T08:25:53.956Z,13.53
2022-11-23T08:28:26.423Z,13.59
2022-11-23T08:30:55.125Z,14.31
2022-11-23T08:33:23.437Z,13.71
2022-11-23T08:35:52.875Z,13.54
2022-11-23T08:38:21.140Z,14.09
2022-11-23T08:40:49.525Z,13.90
2022-11-23T08:43:20.910Z,15.21
2022-11-23T08:45:50.530Z,14.40
2022-11-23T08:48:18.999Z,14.21
2022-11-23T08:50:50.221Z,14.37
2022-11-23T08:53:18.817Z,15.12
2022-11-23T08:55:47.610Z,15.55
2022-11-23T08:58:15.896Z,15.56
2022-11-23T09:00:44.222Z,14.71
2022-11-23T09:03:13.929Z,16.10
2022-11-23T09:05:42.255Z,16.71
2022-11-23T09:08:13.754Z,16.64
2022-11-23T09:10:42.058Z,16.24
2022-11-23T09:13:10.641Z,16.96
2022-11-23T09:15:39.068Z,16.26
2022-11-23T09:18:07.535Z,16.57
2022-11-23T09:20:41.276Z,16.58
2022-11-23T09:23:14.227Z,17.00
2022-11-23T09:25:43.281Z,17.58
2022-11-23T09:28:12.731Z,17.61
2022-11-23T09:30:41.042Z,17.55
2022-11-23T09:33:09.598Z,17.72
2022-11-23T09:35:43.582Z,17.91
2022-11-23T09:38:13.613Z,18.23
2022-11-23T09:40:42.793Z,17.27
2022-11-23T09:43:41.765Z,17.38
2022-11-23T09:46:23.737Z,17.93
2022-11-23T09:49:17.413Z,18.42
2022-11-23T09:51:48.338Z,17.80
2022-11-23T09:54:27.183Z,17.63
2022-11-23T09:57:01.566Z,16.82
2022-11-23T09:59:43.184Z,16.92
2022-11-23T10:02:22.676Z,17.28
2022-11-23T10:04:54.458Z,16.73
2022-11-23T10:07:44.780Z,17.91
2022-11-23T10:10:33.151Z,17.07
2022-11-23T10:13:15.501Z,17.31
2022-11-23T10:16:03.084Z,17.47
2022-11-23T10:18:43.483Z,16.09
2022-11-23T10:21:20.494Z,16.43
2022-11-23T10:23:55.614Z,17.35
2022-11-23T10:26:30.922Z,16.62
2022-11-23T10:29:10.948Z,16.74
2022-11-23T10:31:39.408Z,17.03
2022-11-23T10:34:14.033Z,16.76
2022-11-23T10:36:43.160Z,16.91
2022-11-23T10:39:24.934Z,17.81
2022-11-23T10:41:54.490Z,16.21
2022-11-23T10:44:32.792Z,16.94
2022-11-23T10:47:01.710Z,17.10
2022-11-23T10:49:33.900Z,16.99
2022-11-23T10:52:30.348Z,17.11
2022-11-23T10:55:03.140Z,17.76
2022-11-23T10:57:34.831Z,16.92
2022-11-23T11:00:25.815Z,17.61
2022-11-23T11:03:00.141Z,18.46
2022-11-23T11:06:07.435Z,18.24
2022-11-23T11:08:29.560Z,17.94
2022-11-23T11:11:04.494Z,18.45
2022-11-23T11:13:40.937Z,17.54
2022-11-23T11:16:23.080Z,19.15
2022-11-23T11:18:51.321Z,19.48
2022-11-23T11:21:23.383Z,18.97
2022-11-23T11:23:56.250Z,19.55
2022-11-23T11:26:28.418Z,19.00
2022-11-23T11:29:02.004Z,18.99
2022-11-23T11:31:51.923Z,17.60
2022-11-23T11:34:26.904Z,18.60
2022-11-23T11:37:05.973Z,18.03
2022-11-23T11:39:42.565Z,18.74
2022-11-23T11:42:19.930Z,18.79
2022-11-23T11:44:51.954Z,19.35
2022-11-23T11:47:30.196Z,19.54
2022-11-23T11:50:03.139Z,19.40
2022-11-23T11:52:40.204Z,20.11
2022-11-23T11:55:17.126Z,18.54
2022-11-23T11:57:53.273Z,19.54
2022-11-23T12:00:23.209Z,19.63
2022-11-23T12:03:04.974Z,18.78
2022-11-23T12:05:42.576Z,19.03
2022-11-23T12:08:18.686Z,19.87
2022-11-23T12:10:52.261Z,19.60
2022-11-23T12:13:25.592Z,18.86
2022-11-23T12:16:05.697Z,19.66
2022-11-23T12:18:53.301Z,20.19
2022-11-23T12:21:44.851Z,19.49
2022-11-23T12:24:22.304Z,19.85
2022-11-23T12:27:01.912Z,20.15
2022-11-23T12:29:50.856Z,19.08
2022-11-23T12:32:32.224Z,19.58
2022-11-23T12:35:35.644Z,19.77
2022-11-23T12:38:18.031Z,18.78
2022-11-23T12:41:18.054Z,19.02
2022-11-23T12:44:02.404Z,19.70
2022-11-23T12:46:42.246Z,19.28
2022-11-23T12:49:28.944Z,19.71
2022-11-23T12:52:11.350Z,19.45
2022-11-23T12:54:55.530Z,19.15
2022-11-23T12:57:31.171Z,20.18
2022-11-23T13:00:03.852Z,20.06
2022-11-23T13:03:25.050Z,20.54
2022-11-23T13:06:33.694Z,19.57
2022-11-23T13:09:29.093Z,19.68
2022-11-23T13:12:19.651Z,20.35
2022-11-23T13:15:04.685Z,20.41
2022-11-23T13:17:46.558Z,20.50
2022-11-23T13:20:59.115Z,19.68
2022-11-23T13:23:27.658Z,20.23
2022-11-23T13:26:15.415Z,19.29
2022-11-23T13:28:44.740Z,19.15
2022-11-23T13:31:26.854Z,20.40
2022-11-23T13:34:01.173Z,20.40
2022-11-23T13:40:06.335Z,20.23
2022-11-23T13:42:36.869Z,20.02
2022-11-23T13:45:30.566Z,20.57
2022-11-23T13:48:49.012Z,20.18
2022-11-23T13:51:10.499Z,19.90
2022-11-23T13:53:43.367Z,19.90
2022-11-23T13:56:35.775Z,19.62
2022-11-23T13:59:32.708Z,19.04
2022-11-23T14:02:29.967Z,18.07
2022-11-23T14:05:56.483Z,18.71
2022-11-23T14:08:28.194Z,17.84
2022-11-23T14:11:00.370Z,19.25
2022-11-23T14:13:34.902Z,19.47
2022-11-23T14:16:05.511Z,18.80
2022-11-23T14:18:54.301Z,18.76
2022-11-23T14:21:33.871Z,18.32
2022-11-23T14:24:54.449Z,18.13
2022-11-23T14:27:47.856Z,19.03
2022-11-23T14:30:44.621Z,19.01
2022-11-23T14:33:28.852Z,18.07
2022-11-23T14:36:10.576Z,17.83
2022-11-23T14:39:05.876Z,16.96
2022-11-23T14:41:37.417Z,17.45
2022-11-23T14:44:10.050Z,17.68
2022-11-23T14:47:01.732Z,17.12
2022-11-23T14:49:32.041Z,16.72
2022-11-23T14:52:02.949Z,16.81
2022-11-23T14:54:32.581Z,16.82
2022-11-23T14:57:05.233Z,17.04
2022-11-23T14:59:37.992Z,16.74
2022-11-23T15:02:16.240Z,16.94
2022-11-23T15:05:06.238Z,16.96
2022-11-23T15:07:49.702Z,17.41
2022-11-23T15:10:34.636Z,17.75
2022-11-23T15:13:21.295Z,17.50
2022-11-23T15:15:55.039Z,17.30
2022-11-23T15:18:32.220Z,16.83
2022-11-23T15:21:05.824Z,16.85
2022-11-23T15:23:39.816Z,16.67
2022-11-23T15:26:34.628Z,17.00
2022-11-23T15:29:06.358Z,17.32
2022-11-23T15:32:00.427Z,17.47
2022-11-23T15:34:30.868Z,17.57
2022-11-23T15:37:00.370Z,17.48
2022-11-23T15:39:39.160Z,17.54
2022-11-23T15:42:08.367Z,17.14
2022-11-23T15:44:51.079Z,16.99
2022-11-23T15:47:27.378Z,16.47
2022-11-23T15:50:03.155Z,16.43
2022-11-23T15:52:38.058Z,16.95
2022-11-23T15:55:14.375Z,16.95
2022-11-23T15:57:43.671Z,16.65
2022-11-23T16:00:26.219Z,16.90
2022-11-23T16:03:28.616Z,16.63
2022-11-23T16:06:26.641Z,16.09
2022-11-23T16:08:55.109Z,16.08
2022-11-23T16:11:33.827Z,16.14
2022-11-23T16:14:16.627Z,16.31
2022-11-23T16:16:51.421Z,16.48
2022-11-23T16:19:30.198Z,16.32
2022-11-23T16:22:03.195Z,16.52
2022-11-23T16:24:35.815Z,17.07
2022-11-23T16:27:14.371Z,16.38
2022-11-23T16:29:43.072Z,17.00
2022-11-23T16:32:34.757Z,17.11
2022-11-23T16:35:18.483Z,16.55
2022-11-23T16:37:47.605Z,16.95
2022-11-23T16:40:18.316Z,16.42
2022-11-23T16:42:53.296Z,16.78
2022-11-23T16:45:22.164Z,15.96
2022-11-23T16:47:57.188Z,15.92
2022-11-23T16:50:25.731Z,16.51
2022-11-23T16:52:54.509Z,16.91
2022-11-23T16:55:23.177Z,16.90
2022-11-23T16:57:52.648Z,16.90
2022-11-23T17:00:23.716Z,15.61
2022-11-23T17:02:52.193Z,15.08
2022-11-23T17:05:24.676Z,14.79
2022-11-23T17:07:54.181Z,14.37
2022-11-23T17:10:28.535Z,13.64
2022-11-23T17:12:57.419Z,13.61
2022-11-23T17:15:26.932Z,13.99
2022-11-23T17:17:57.465Z,13.61
2022-11-23T17:20:28.869Z,13.61
2022-11-23T17:23:00.282Z,13.70
2022-11-23T17:25:30.488Z,14.24
2022-11-23T17:28:00.538Z,13.77
2022-11-23T17:30:29.684Z,13.79
2022-11-23T17:32:58.286Z,13.53
2022-11-23T17:35:32.676Z,13.86
2022-11-23T17:38:05.211Z,13.74
2022-11-23T17:40:36.006Z,14.34
2022-11-23T17:43:05.792Z,14.96
2022-11-23T17:45:36.318Z,15.07
2022-11-23T17:48:05.530Z,14.54
2022-11-23T17:50:35.405Z,14.33
2022-11-23T17:53:07.092Z,15.26
2022-11-23T17:55:36.603Z,15.38
2022-11-23T17:58:07.386Z,15.02
2022-11-23T18:00:37.672Z,15.11
2022-11-23T18:03:06.136Z,14.00
2022-11-23T18:05:37.216Z,14.63
2022-11-23T18:08:06.724Z,15.13
2022-11-23T18:10:35.337Z,14.16
2022-11-23T18:13:07.672Z,14.75
2022-11-23T18:15:38.128Z,14.28
2022-11-23T18:18:06.798Z,13.60
2022-11-23T18:20:37.059Z,14.42
2022-11-23T18:23:05.786Z,14.75
2022-11-23T18:25:35.015Z,14.69
2022-11-23T18:28:04.471Z,14.60
2022-11-23T18:30:33.688Z,13.90
2022-11-23T18:33:02.163Z,14.74
2022-11-23T18:35:31.015Z,15.07
2022-11-23T18:38:01.547Z,14.92
2022-11-23T18:40:30.710Z,15.08
2022-11-23T18:43:00.279Z,15.61
2022-11-23T18:45:28.880Z,14.67
2022-11-23T18:47:58.099Z,14.63
2022-11-23T18:50:26.946Z,14.39
2022-11-23T18:52:57.058Z,14.19
2022-11-23T18:55:28.253Z,13.95
2022-11-23T18:57:57.868Z,14.85
2022-11-23T19:00:27.742Z,14.58
2022-11-23T19:02:58.446Z,14.55
2022-11-23T19:05:28.794Z,13.91
2022-11-23T19:08:04.222Z,14.07
2022-11-23T19:10:39.351Z,14.72
2022-11-23T19:13:08.558Z,14.33
2022-11-23T19:15:38.656Z,14.60
2022-11-23T19:18:09.144Z,14.35
2022-11-23T19:20:41.216Z,13.94
2022-11-23T19:23:12.113Z,14.57
2022-11-23T19:25:43.516Z,13.79
2022-11-23T19:28:12.020Z,13.51
2022-11-23T19:30:40.318Z,13.92
2022-11-23T19:33:08.946Z,13.86
2022-11-23T19:35:37.365Z,13.81
2022-11-23T19:38:05.964Z,14.31
2022-11-23T19:40:34.447Z,13.50
2022-11-23T19:43:05.502Z,14.40
2022-11-23T19:45:34.293Z,13.63
2022-11-23T19:48:02.894Z,14.25
2022-11-23T19:50:33.204Z,13.74
2022-11-23T19:53:12.477Z,14.46
2022-11-23T19:55:42.253Z,14.09
2022-11-23T19:58:15.453Z,14.27
2022-11-23T20:00:45.809Z,14.18
2022-11-23T20:03:15.291Z,13.83
2022-11-23T20:05:57.391Z,14.03
2022-11-23T20:08:26.381Z,14.50
2022-11-23T20:10:54.930Z,13.84
2022-11-23T20:13:25.285Z,14.41
2022-11-23T20:15:54.071Z,14.59
2022-11-23T20:18:26.880Z,14.33
2022-11-23T20:20:59.298Z,14.76
2022-11-23T20:23:29.325Z,14.59
2022-11-23T20:25:58.753Z,14.11
2022-11-23T20:28:28.746Z,13.80
2022-11-23T20:30:57.276Z,14.58
2022-11-23T20:33:27.610Z,14.21
2022-11-23T20:36:26.057Z,14.63
2022-11-23T20:38:58.956Z,14.45
2022-11-23T20:41:29.724Z,14.21
2022-11-23T20:44:03.888Z,14.65
2022-11-23T20:47:00.538Z,14.46
2022-11-23T20:49:24.232Z,14.86
2022-11-23T20:51:53.403Z,14.45
2022-11-23T20:54:24.248Z,14.27
2022-11-23T20:56:58.026Z,15.12
2022-11-23T20:59:28.100Z,15.08
2022-11-23T21:01:56.697Z,14.44
2022-11-23T21:04:26.796Z,13.86
2022-11-23T21:06:55.842Z,14.55
2022-11-23T21:09:24.710Z,14.33
2022-11-23T21:12:15.417Z,14.70
2022-11-23T21:14:45.935Z,14.10
2022-11-23T21:17:16.038Z,14.39
2022-11-23T21:19:44.964Z,14.89
2022-11-23T21:22:18.731Z,14.63
2022-11-23T21:24:56.888Z,14.49
2022-11-23T21:27:28.258Z,14.42
2022-11-23T21:30:01.049Z,14.12
2022-11-23T21:32:29.633Z,14.53
2022-11-23T21:34:59.027Z,14.56
2022-11-23T21:37:28.873Z,14.77
2022-11-23T21:40:11.740Z,14.46
2022-11-23T21:42:54.621Z,14.88
2022-11-23T21:45:27.969Z,14.66
2022-11-23T21:47:57.421Z,14.54
2022-11-23T21:50:27.961Z,15.00
2022-11-23T21:52:58.082Z,15.18
2022-11-23T21:55:30.243Z,14.85
2022-11-23T21:58:04.796Z,14.37
2022-11-23T22:00:37.899Z,15.02
2022-11-23T22:03:07.768Z,14.77
2022-11-23T22:05:38.777Z,15.19
2022-11-23T22:11:01.171Z,14.81
2022-11-23T22:13:36.892Z,14.86
2022-11-23T22:16:17.232Z,15.27
2022-11-23T22:18:51.418Z,15.07
2022-11-23T22:21:25.777Z,15.13
2022-11-23T22:23:54.636Z,14.93
2022-11-23T22:26:26.260Z,14.48
2022-11-23T22:28:57.769Z,14.44
2022-11-23T22:31:29.587Z,14.36
2022-11-23T22:33:59.185Z,14.25
2022-11-23T22:36:29.358Z,14.35
2022-11-23T22:39:02.307Z,14.87
2022-11-23T22:41:34.870Z,14.95
2022-11-23T22:44:05.984Z,14.00
2022-11-23T22:46:37.361Z,15.18
2022-11-23T22:49:07.195Z,15.14
2022-11-23T22:51:37.784Z,15.11
2022-11-23T22:54:06.724Z,14.83
2022-11-23T22:56:39.104Z,14.65
2022-11-23T22:59:08.788Z,14.94
2022-11-23T23:01:39.006Z,14.75
2022-11-23T23:04:07.864Z,15.12
2022-11-23T23:06:38.297Z,14.37
2022-11-23T23:09:09.220Z,15.52
2022-11-23T23:11:39.202Z,15.13
2022-11-23T23:14:08.579Z,15.00
2022-11-23T23:16:39.956Z,15.21
2022-11-23T23:19:09.421Z,14.95
2022-11-23T23:21:39.893Z,15.20
2022-11-23T23:24:10.989Z,15.06
2022-11-23T23:26:40.996Z,15.29
2022-11-23T23:29:10.099Z,15.77
2022-11-23T23:31:40.235Z,15.14
2022-11-23T23:34:08.913Z,15.12
2022-11-23T23:36:43.555Z,15.17
2022-11-23T23:39:12.508Z,15.00
2022-11-23T23:41:41.154Z,15.66
2022-11-23T23:44:11.895Z,15.19
2022-11-23T23:46:48.174Z,15.03
2022-11-23T23:49:17.793Z,15.07
2022-11-23T23:51:51.445Z,15.79
2022-11-23T23:54:21.509Z,15.42
2022-11-23T23:56:50.057Z,14.53
2022-11-23T23:59:18.594Z,14.83
